Time;durP1;ratioP1;P1;durP2;ratioP2;P2;SDS_P1;SDS_P2;PMS_P1;PMS_P2;Temp;Humidity;BMP_temperature;BMP_pressure;BME280_temperature;BME280_humidity;BME280_pressure;Samples;Min_cycle;Max_cycle;Signal;HPM_P1;HPM_P2
2023/05/29 00:01:31;;;;;;;10.43;4.93;;;;;;;15.68;69.38;98096.97;5106083;28;20192;-77
2023/05/29 00:03:57;;;;;;;8.37;4.83;;;;;;;15.61;68.97;98107.06;5106668;28;20206;-77
2023/05/29 00:06:25;;;;;;;7.47;4.87;;;;;;;15.67;69.53;98108.78;5107288;28;20250;-77
2023/05/29 00:08:51;;;;;;;9.17;4.67;;;;;;;15.58;70.08;98107.59;5117919;28;20230;-77
2023/05/29 00:11:17;;;;;;;8.97;4.90;;;;;;;15.57;69.96;98105.97;5117240;28;20204;-77
2023/05/29 00:13:44;;;;;;;8.50;5.10;;;;;;;15.48;69.96;98102.09;5117412;28;20206;-77
2023/05/29 00:16:10;;;;;;;8.77;4.90;;;;;;;15.36;70.70;98112.13;5116782;28;20227;-77
2023/05/29 00:18:45;;;;;;;6.47;4.67;;;;;;;15.42;68.95;98110.31;5117010;28;20233;-77
2023/05/29 00:21:14;;;;;;;8.53;5.60;;;;;;;15.45;70.12;98105.28;5113326;28;20257;-77
2023/05/29 00:23:41;;;;;;;9.20;5.33;;;;;;;15.41;70.86;98100.66;5115643;28;20227;-77
2023/05/29 00:26:07;;;;;;;7.77;5.20;;;;;;;15.29;72.15;98099.94;5101806;28;20220;-77
2023/05/29 00:28:35;;;;;;;9.80;5.07;;;;;;;15.17;72.83;98104.56;5096603;28;20200;-77
2023/05/29 00:31:02;;;;;;;6.00;4.87;;;;;;;15.04;73.61;98096.88;5096499;28;20210;-77
2023/05/29 00:33:28;;;;;;;8.23;5.37;;;;;;;15.03;73.64;98089.91;5102044;28;20195;-77
2023/05/29 00:35:55;;;;;;;7.30;4.63;;;;;;;14.87;74.21;98098.78;5108663;28;20227;-77
2023/05/29 00:38:21;;;;;;;8.40;4.70;;;;;;;14.93;72.85;98095.94;5096158;28;20637;-77
2023/05/29 00:40:47;;;;;;;7.57;4.50;;;;;;;15.06;75.49;98092.91;5096353;28;20208;-75
2023/05/29 00:43:14;;;;;;;8.23;4.80;;;;;;;15.17;70.82;98094.69;5096174;28;20224;-75
2023/05/29 00:45:40;;;;;;;6.23;4.40;;;;;;;15.25;69.93;98088.88;5096418;28;20228;-75
2023/05/29 00:48:08;;;;;;;5.27;4.43;;;;;;;15.32;69.28;98086.84;5096156;28;20204;-74
2023/05/29 00:50:34;;;;;;;7.20;5.10;;;;;;;15.14;71.96;98087.13;5095699;28;20208;-75
2023/05/29 00:53:02;;;;;;;7.47;5.23;;;;;;;14.93;72.78;98082.53;5096121;28;20200;-74
2023/05/29 00:55:30;;;;;;;6.50;4.67;;;;;;;14.84;73.96;98086.69;5096036;28;20220;-74
2023/05/29 00:57:56;;;;;;;7.40;5.63;;;;;;;14.75;74.82;98082.81;5096091;28;20208;-74
2023/05/29 01:00:23;;;;;;;6.57;5.10;;;;;;;14.75;74.05;98082.81;5095992;28;20210;-74
2023/05/29 01:02:52;;;;;;;6.90;5.00;;;;;;;14.70;74.65;98088.09;5095379;28;20277;-74
2023/05/29 01:05:19;;;;;;;9.03;4.90;;;;;;;14.85;73.41;98082.97;5095797;28;20204;-74
2023/05/29 01:07:46;;;;;;;8.93;4.93;;;;;;;15.00;70.74;98080.50;5095850;28;20208;-75
2023/05/29 01:10:12;;;;;;;8.07;4.90;;;;;;;14.94;71.35;98086.88;5095870;28;20261;-75
2023/05/29 01:12:58;;;;;;;6.67;4.53;;;;;;;15.02;70.59;98081.06;5095729;28;20206;-74
2023/05/29 01:16:02;;;;;;;6.93;5.17;;;;;;;14.91;74.03;98089.19;5063209;28;20238;-74
2023/05/29 01:18:43;;;;;;;8.30;4.83;;;;;;;14.83;73.30;98082.41;5095968;28;20220;-74
2023/05/29 01:21:14;;;;;;;7.13;4.70;;;;;;;14.89;70.43;98078.75;5095871;28;20195;-75
2023/05/29 01:24:11;;;;;;;6.93;4.63;;;;;;;15.00;71.09;98085.06;5077574;28;20223;-75
2023/05/29 01:27:01;;;;;;;7.13;4.77;;;;;;;14.98;70.60;98079.16;5095115;28;20231;-75
2023/05/29 01:29:31;;;;;;;7.53;5.30;;;;;;;14.75;72.33;98077.44;5095051;28;20188;-75
2023/05/29 01:31:59;;;;;;;7.00;5.00;;;;;;;14.63;73.34;98075.94;5095072;28;20240;-75
2023/05/29 01:34:25;;;;;;;8.60;5.30;;;;;;;14.72;71.72;98072.59;5095202;28;20566;-75
2023/05/29 01:36:51;;;;;;;8.43;5.00;;;;;;;14.70;72.34;98074.69;5095136;28;20224;-75
2023/05/29 01:39:19;;;;;;;9.10;4.90;;;;;;;14.60;73.13;98071.88;5095220;28;20230;-74
2023/05/29 01:41:47;;;;;;;8.23;5.80;;;;;;;14.57;74.28;98080.38;5077277;28;20208;-74
2023/05/29 01:44:14;;;;;;;6.47;5.07;;;;;;;14.60;73.58;98074.53;5094720;28;20681;-75
2023/05/29 01:46:42;;;;;;;7.87;5.20;;;;;;;14.56;75.31;98078.75;5095260;28;20268;-74
2023/05/29 01:49:09;;;;;;;7.97;5.13;;;;;;;14.44;76.50;98078.06;5095019;28;20204;-74
2023/05/29 01:51:36;;;;;;;7.40;4.50;;;;;;;14.43;76.50;98083.63;5076993;28;20208;-74
2023/05/29 01:54:02;;;;;;;5.30;4.20;;;;;;;14.33;76.54;98086.94;5094877;28;20199;-74
2023/05/29 01:56:30;;;;;;;6.93;4.83;;;;;;;14.25;76.82;98083.84;5094756;28;20729;-74
2023/05/29 01:58:57;;;;;;;8.60;4.83;;;;;;;14.22;77.77;98087.00;5094781;28;20200;-74
2023/05/29 02:01:24;;;;;;;5.60;4.43;;;;;;;14.30;77.75;98089.28;5094698;28;20584;-75
2023/05/29 02:03:51;;;;;;;7.40;4.87;;;;;;;14.30;75.56;98097.31;5094651;28;20255;-75
2023/05/29 02:06:18;;;;;;;8.87;4.83;;;;;;;14.35;75.68;98092.06;5094609;28;20220;-75
2023/05/29 02:08:44;;;;;;;6.13;4.50;;;;;;;14.38;75.39;98088.91;5094648;28;20207;-74
2023/05/29 02:11:10;;;;;;;7.00;5.07;;;;;;;14.25;76.44;98090.00;5094582;28;20214;-75
2023/05/29 02:13:37;;;;;;;7.47;5.27;;;;;;;14.35;75.07;98087.53;5094586;28;20204;-74
2023/05/29 02:16:03;;;;;;;6.17;4.87;;;;;;;14.45;74.37;98087.69;5093598;28;20242;-75
2023/05/29 02:18:30;;;;;;;8.27;4.83;;;;;;;14.42;74.46;98085.50;5094511;28;20211;-74
2023/05/29 02:20:57;;;;;;;6.23;4.60;;;;;;;14.40;75.21;98084.94;5094061;28;20728;-74
2023/05/29 02:23:24;;;;;;;7.10;4.43;;;;;;;14.42;74.57;98082.81;5094513;28;20230;-75
2023/05/29 02:25:50;;;;;;;7.70;4.53;;;;;;;14.46;73.60;98078.59;5094095;28;20271;-75
2023/05/29 02:28:16;;;;;;;8.67;4.60;;;;;;;14.60;72.47;98079.09;5094309;28;20291;-75
2023/05/29 02:30:43;;;;;;;7.33;4.60;;;;;;;14.24;77.31;98071.56;5094233;28;20208;-74
2023/05/29 02:33:09;;;;;;;8.60;5.07;;;;;;;14.21;77.83;98072.84;5094425;28;20196;-74
2023/05/29 02:35:36;;;;;;;7.60;4.80;;;;;;;14.09;78.99;98076.56;5094126;28;20224;-74
2023/05/29 02:38:02;;;;;;;6.57;4.90;;;;;;;14.24;76.08;98083.03;5093829;28;20204;-74
2023/05/29 02:40:28;;;;;;;6.40;4.50;;;;;;;14.09;77.15;98080.06;5094965;28;20227;-75
2023/05/29 02:42:55;;;;;;;7.00;5.03;;;;;;;13.94;78.22;98074.47;5093972;28;20231;-75
2023/05/29 02:45:21;;;;;;;5.60;4.23;;;;;;;14.04;77.99;98076.50;5093951;28;20260;-75
2023/05/29 02:47:48;;;;;;;6.90;5.10;;;;;;;14.38;74.11;98073.66;5093997;28;20208;-75
2023/05/29 02:50:15;;;;;;;6.63;4.73;;;;;;;14.16;78.39;98078.03;5093890;28;20208;-74
2023/05/29 02:52:41;;;;;;;8.60;4.97;;;;;;;13.99;79.90;98069.22;5093597;28;20207;-75
2023/05/29 02:55:08;;;;;;;7.07;5.10;;;;;;;13.92;80.34;98070.38;5094056;28;20203;-74
2023/05/29 02:57:35;;;;;;;9.30;4.90;;;;;;;13.93;79.38;98064.78;5093833;28;20293;-74
2023/05/29 03:00:02;;;;;;;7.00;5.20;;;;;;;13.86;81.63;98063.31;5093804;28;20214;-74
2023/05/29 03:02:28;;;;;;;7.77;5.03;;;;;;;13.90;81.08;98067.16;5093187;28;20330;-74
2023/05/29 03:04:55;;;;;;;7.77;5.10;;;;;;;13.70;82.44;98069.44;5093739;28;20208;-74
2023/05/29 03:07:21;;;;;;;7.47;5.07;;;;;;;13.51;83.42;98070.66;5093639;28;20234;-74
2023/05/29 03:09:47;;;;;;;7.47;4.73;;;;;;;13.43;85.28;98066.50;5093680;28;20211;-75
2023/05/29 03:12:14;;;;;;;8.13;4.53;;;;;;;13.30;85.68;98073.97;5093604;28;20207;-75
2023/05/29 03:14:40;;;;;;;6.17;4.33;;;;;;;13.29;85.76;98073.16;5093635;28;20211;-75
2023/05/29 03:17:07;;;;;;;6.20;4.77;;;;;;;13.36;84.44;98073.84;5093281;28;20231;-75
2023/05/29 03:19:34;;;;;;;6.07;5.00;;;;;;;13.42;85.09;98072.06;5093302;28;20607;-75
2023/05/29 03:22:00;;;;;;;5.50;4.40;;;;;;;13.35;84.08;98077.56;5093626;28;20293;-75
2023/05/29 03:24:27;;;;;;;7.60;4.87;;;;;;;13.32;85.05;98075.34;5093527;28;20234;-75
2023/05/29 03:26:53;;;;;;;8.17;4.83;;;;;;;13.22;86.25;98072.50;5095274;28;20314;-76
2023/05/29 03:29:20;;;;;;;8.67;5.23;;;;;;;13.25;85.63;98076.53;5097617;28;20210;-75
2023/05/29 03:31:46;;;;;;;9.13;5.43;;;;;;;13.21;86.36;98070.03;5097661;28;20203;-75
2023/05/29 03:34:13;;;;;;;8.20;4.67;;;;;;;13.32;84.09;98077.22;5097735;28;20211;-75
2023/05/29 03:36:39;;;;;;;6.00;4.50;;;;;;;13.26;85.11;98073.66;5097597;28;20231;-75
2023/05/29 03:39:06;;;;;;;9.57;4.70;;;;;;;13.29;86.52;98081.16;5097183;28;20667;-75
2023/05/29 03:41:32;;;;;;;9.33;5.00;;;;;;;13.23;87.74;98074.09;5097521;28;20545;-75
2023/05/29 03:43:59;;;;;;;6.23;4.57;;;;;;;13.18;87.49;98071.31;5097309;28;20219;-75
2023/05/29 03:46:25;;;;;;;7.43;4.50;;;;;;;13.26;86.80;98072.81;5097287;28;20566;-75
2023/05/29 03:48:51;;;;;;;6.50;4.27;;;;;;;13.25;85.67;98074.66;5097392;28;20203;-75
2023/05/29 03:51:18;;;;;;;5.20;4.50;;;;;;;13.11;86.65;98075.97;5097391;28;20208;-75
2023/05/29 03:53:44;;;;;;;6.10;4.70;;;;;;;13.08;86.40;98083.63;5097235;28;20196;-75
2023/05/29 03:56:10;;;;;;;9.40;4.90;;;;;;;13.14;86.87;98075.50;5097155;28;20224;-75
2023/05/29 03:58:37;;;;;;;5.90;4.47;;;;;;;13.07;86.45;98077.47;5097474;28;20211;-75
2023/05/29 04:01:03;;;;;;;7.00;4.60;;;;;;;13.06;87.06;98091.09;5096886;28;20207;-75
2023/05/29 04:03:30;;;;;;;6.20;4.60;;;;;;;13.10;86.37;98093.03;5096792;28;20566;-75
2023/05/29 04:05:57;;;;;;;7.80;4.27;;;;;;;13.06;87.38;98096.41;5096402;28;20737;-75
2023/05/29 04:08:23;;;;;;;6.60;4.40;;;;;;;13.01;87.98;98105.09;5096565;28;20211;-75
2023/05/29 04:10:53;;;;;;;7.33;4.90;;;;;;;13.04;88.27;98107.31;5097102;28;20215;-75
2023/05/29 04:13:19;;;;;;;7.53;4.83;;;;;;;13.20;86.92;98105.81;5096832;28;20202;-75
2023/05/29 04:15:46;;;;;;;6.87;5.07;;;;;;;13.38;83.40;98111.78;5096843;28;20236;-75
2023/05/29 04:18:12;;;;;;;7.57;4.60;;;;;;;13.41;84.36;98108.66;5096718;28;20189;-75
2023/05/29 04:20:39;;;;;;;6.60;4.13;;;;;;;13.27;85.66;98112.63;5096781;28;20207;-75
2023/05/29 04:23:05;;;;;;;5.67;4.23;;;;;;;13.36;85.55;98105.88;5096302;28;20230;-75
2023/05/29 04:25:32;;;;;;;6.00;4.63;;;;;;;13.32;85.91;98118.09;5096397;28;20230;-75
2023/05/29 04:28:00;;;;;;;5.43;4.07;;;;;;;13.35;85.30;98125.63;5096278;28;20214;-75
2023/05/29 04:30:28;;;;;;;6.90;4.60;;;;;;;13.48;85.47;98120.00;5096321;28;20247;-75
2023/05/29 04:32:54;;;;;;;7.60;5.03;;;;;;;13.56;82.46;98132.22;5096556;28;20278;-75
2023/05/29 04:35:21;;;;;;;5.87;4.70;;;;;;;13.45;83.63;98133.84;5096008;28;20682;-75
2023/05/29 04:37:48;;;;;;;6.60;4.17;;;;;;;13.43;83.84;98133.25;5095913;28;20208;-75
2023/05/29 04:40:17;;;;;;;7.53;4.83;;;;;;;13.34;84.41;98132.00;5096149;28;20207;-75
2023/05/29 04:42:44;;;;;;;7.90;4.77;;;;;;;13.46;83.99;98130.13;5096166;28;20209;-75
2023/05/29 04:45:11;;;;;;;8.73;4.87;;;;;;;13.53;83.74;98141.50;5096220;28;20252;-75
2023/05/29 04:47:43;;;;;;;7.03;4.37;;;;;;;13.57;82.66;98139.19;5096314;28;20263;-75
2023/05/29 04:50:18;;;;;;;7.33;5.03;;;;;;;13.52;83.20;98145.22;5095869;28;20192;-75
2023/05/29 04:52:45;;;;;;;8.63;4.83;;;;;;;13.45;83.58;98149.06;5096105;28;20195;-75
2023/05/29 04:55:11;;;;;;;5.77;4.47;;;;;;;13.53;83.63;98143.34;5096084;28;20206;-75
2023/05/29 04:57:38;;;;;;;5.50;4.30;;;;;;;13.70;83.09;98141.59;5096073;28;20203;-75
2023/05/29 05:00:06;;;;;;;6.70;4.87;;;;;;;13.87;83.47;98135.25;5096034;28;20211;-75
2023/05/29 05:02:33;;;;;;;6.30;4.13;;;;;;;14.26;80.48;98131.75;5095990;28;20216;-75
2023/05/29 05:04:59;;;;;;;7.67;4.80;;;;;;;14.62;77.20;98142.03;5095949;28;20231;-75
2023/05/29 05:07:26;;;;;;;8.63;4.57;;;;;;;14.91;75.66;98146.22;5095752;28;20309;-75
2023/05/29 05:09:52;;;;;;;5.03;4.47;;;;;;;15.10;73.61;98147.59;5095839;28;20226;-75
2023/05/29 05:12:18;;;;;;;6.00;4.63;;;;;;;14.83;75.07;98152.00;5095794;28;20207;-75
2023/05/29 05:14:45;;;;;;;8.67;5.00;;;;;;;14.90;75.47;98149.97;5095693;28;20343;-75
2023/05/29 05:17:11;;;;;;;5.57;4.50;;;;;;;15.23;73.89;98149.94;5095352;28;20237;-75
2023/05/29 05:19:38;;;;;;;5.70;4.27;;;;;;;15.77;70.83;98145.59;5095789;28;20294;-75
2023/05/29 05:22:05;;;;;;;5.20;4.60;;;;;;;15.87;69.92;98154.56;5095656;28;20210;-75
2023/05/29 05:24:32;;;;;;;6.93;4.30;;;;;;;15.94;69.81;98151.72;5095511;28;20223;-75
2023/05/29 05:26:58;;;;;;;5.40;4.30;;;;;;;15.69;69.81;98154.88;5095427;28;20228;-75
2023/05/29 05:29:24;;;;;;;8.43;4.10;;;;;;;15.24;71.82;98156.91;5098638;28;20228;-78
2023/05/29 05:31:51;;;;;;;6.17;4.30;;;;;;;15.32;72.33;98155.66;5097698;28;20208;-78
2023/05/29 05:34:17;;;;;;;7.53;4.67;;;;;;;15.44;71.59;98159.09;5097159;28;20203;-77
2023/05/29 05:36:43;;;;;;;7.60;4.57;;;;;;;15.29;72.40;98156.97;5097692;28;20224;-78
2023/05/29 05:39:10;;;;;;;9.10;4.27;;;;;;;15.15;73.12;98153.03;5097911;28;20566;-78
2023/05/29 05:41:36;;;;;;;5.50;4.40;;;;;;;15.29;73.09;98154.28;5098592;28;20210;-78
2023/05/29 05:44:03;;;;;;;6.70;4.50;;;;;;;15.39;72.72;98159.84;5097840;28;20249;-78
2023/05/29 05:46:29;;;;;;;6.10;4.53;;;;;;;15.62;73.41;98165.00;5096697;28;20310;-78
2023/05/29 05:48:57;;;;;;;5.17;4.67;;;;;;;15.75;73.07;98164.59;5095948;28;20203;-78
2023/05/29 05:51:24;;;;;;;6.83;4.70;;;;;;;15.76;72.91;98160.88;5095168;28;20740;-78
2023/05/29 05:53:51;;;;;;;7.93;4.47;;;;;;;15.95;72.29;98164.88;5095792;28;20200;-78
2023/05/29 05:56:17;;;;;;;8.00;4.90;;;;;;;16.01;72.77;98166.53;5095848;28;20223;-78
2023/05/29 05:58:43;;;;;;;12.53;5.53;;;;;;;16.27;72.48;98176.50;5095777;28;20376;-77
2023/05/29 06:01:11;;;;;;;6.53;4.50;;;;;;;16.33;71.53;98182.75;5095481;28;20210;-77
2023/05/29 06:03:42;;;;;;;10.70;4.23;;;;;;;16.40;70.40;98178.81;5095245;28;20234;-77
2023/05/29 06:06:09;;;;;;;5.70;4.50;;;;;;;16.27;72.03;98187.22;5095389;28;20277;-77
2023/05/29 06:08:37;;;;;;;4.87;4.37;;;;;;;16.45;70.80;98186.91;5094845;28;20694;-77
2023/05/29 06:11:04;;;;;;;6.33;4.53;;;;;;;16.42;71.20;98192.00;5094863;28;20258;-77
2023/05/29 06:13:30;;;;;;;6.93;4.37;;;;;;;16.58;68.81;98194.56;5094726;28;20663;-77
2023/05/29 06:15:56;;;;;;;7.43;4.80;;;;;;;16.54;71.96;98196.13;5094647;28;20737;-77
2023/05/29 06:18:23;;;;;;;8.93;4.47;;;;;;;16.91;67.77;98190.81;5094880;28;20192;-77
2023/05/29 06:20:49;;;;;;;7.37;4.93;;;;;;;16.98;67.14;98196.81;5095018;28;20204;-77
2023/05/29 06:23:17;;;;;;;5.57;5.00;;;;;;;16.84;69.91;98196.44;5094860;28;20204;-77
2023/05/29 06:25:43;;;;;;;6.63;4.37;;;;;;;16.92;65.29;98198.63;5095384;28;20228;-77
2023/05/29 06:28:10;;;;;;;6.10;4.40;;;;;;;17.09;67.31;98202.00;5094864;28;20685;-77
2023/05/29 06:30:36;;;;;;;8.13;4.30;;;;;;;17.14;64.88;98206.63;5094803;28;20653;-77
2023/05/29 06:33:02;;;;;;;6.13;4.00;;;;;;;17.00;67.42;98206.22;5095658;28;20210;-77
2023/05/29 06:35:29;;;;;;;6.40;4.03;;;;;;;17.10;68.04;98206.31;5095206;28;20325;-77
2023/05/29 06:37:55;;;;;;;7.40;4.47;;;;;;;17.32;66.34;98211.59;5095253;28;20230;-77
2023/05/29 06:40:21;;;;;;;6.87;4.40;;;;;;;17.21;68.16;98208.03;5095704;28;20264;-78
2023/05/29 06:42:48;;;;;;;6.57;4.53;;;;;;;17.26;68.00;98216.13;5094416;28;20675;-78
2023/05/29 06:45:14;;;;;;;5.43;4.30;;;;;;;17.29;68.38;98220.97;5094915;28;20224;-78
2023/05/29 06:47:42;;;;;;;7.00;4.50;;;;;;;17.26;70.05;98220.66;5096547;28;20673;-78
2023/05/29 06:50:09;;;;;;;7.70;5.00;;;;;;;17.33;68.56;98227.44;5096643;28;20210;-78
2023/05/29 06:52:36;;;;;;;7.23;4.80;;;;;;;17.44;67.95;98226.50;5095679;28;20286;-78
2023/05/29 06:55:02;;;;;;;6.10;4.93;;;;;;;17.40;66.59;98228.06;5095742;28;20207;-78
2023/05/29 06:57:29;;;;;;;9.60;4.97;;;;;;;17.57;69.85;98235.97;5096034;28;20219;-77
2023/05/29 06:59:55;;;;;;;7.53;4.50;;;;;;;17.81;68.94;98234.50;5095623;28;20208;-77
2023/05/29 07:02:21;;;;;;;7.27;4.07;;;;;;;17.78;68.56;98232.38;5095565;28;20199;-78
2023/05/29 07:04:48;;;;;;;6.93;4.40;;;;;;;18.00;65.19;98233.03;5095952;28;20266;-78
2023/05/29 07:07:14;;;;;;;5.40;4.10;;;;;;;18.01;65.03;98237.34;5095750;28;20694;-77
2023/05/29 07:09:41;;;;;;;9.00;4.03;;;;;;;17.97;64.51;98234.31;5097890;28;20218;-77
2023/05/29 07:12:07;;;;;;;7.93;4.50;;;;;;;17.44;63.37;98245.31;5105294;28;20275;-78
2023/05/29 07:14:33;;;;;;;6.23;4.37;;;;;;;17.56;64.39;98250.50;5105073;28;20187;-78
2023/05/29 07:17:00;;;;;;;5.17;3.60;;;;;;;17.54;61.30;98241.88;5105956;28;20254;-78
2023/05/29 07:19:26;;;;;;;4.93;4.17;;;;;;;17.75;64.89;98240.94;5105020;28;20231;-78
2023/05/29 07:21:53;;;;;;;5.10;3.87;;;;;;;17.83;64.01;98241.25;5106237;28;20199;-78
2023/05/29 07:24:19;;;;;;;6.77;3.60;;;;;;;17.61;61.17;98237.91;5106980;28;20219;-78
2023/05/29 07:26:45;;;;;;;5.93;4.10;;;;;;;18.14;61.21;98234.97;5105009;28;20216;-78
2023/05/29 07:29:13;;;;;;;4.90;3.70;;;;;;;18.15;61.72;98243.84;5100879;28;20229;-78
2023/05/29 07:31:40;;;;;;;6.70;4.20;;;;;;;18.46;60.44;98249.09;5109547;28;20658;-78
2023/05/29 07:34:07;;;;;;;5.57;4.17;;;;;;;18.46;61.41;98248.31;5109982;28;20195;-77
2023/05/29 07:36:33;;;;;;;5.40;4.23;;;;;;;18.39;62.27;98248.56;5110788;28;20211;-78
2023/05/29 07:38:59;;;;;;;6.07;3.67;;;;;;;18.48;60.23;98254.22;5109563;28;20195;-77
2023/05/29 07:41:27;;;;;;;5.83;4.20;;;;;;;18.62;59.91;98247.28;5102752;28;20203;-77
2023/05/29 07:43:55;;;;;;;6.07;4.40;;;;;;;18.80;59.24;98252.16;5110972;28;20216;-78
2023/05/29 07:46:21;;;;;;;5.97;4.07;;;;;;;18.87;59.16;98250.81;5094348;28;20242;-77
2023/05/29 07:48:48;;;;;;;8.80;4.17;;;;;;;18.95;58.51;98250.31;5083272;28;20196;-77
2023/05/29 07:51:14;;;;;;;5.57;3.83;;;;;;;18.94;59.41;98248.69;5085096;28;20211;-77
2023/05/29 07:53:41;;;;;;;9.87;4.50;;;;;;;18.97;57.88;98244.66;5082304;28;20196;-77
2023/05/29 07:56:07;;;;;;;6.10;4.23;;;;;;;18.94;57.96;98243.31;5083731;28;20247;-77
2023/05/29 07:58:34;;;;;;;7.13;4.40;;;;;;;18.14;59.74;98245.72;5084003;28;20200;-78
2023/05/29 08:01:00;;;;;;;4.93;4.00;;;;;;;18.52;58.95;98245.38;5083397;28;20196;-77
2023/05/29 08:03:27;;;;;;;5.20;3.83;;;;;;;18.72;58.43;98240.03;5085014;28;20199;-77
2023/05/29 08:05:53;;;;;;;5.63;3.70;;;;;;;18.84;58.73;98246.00;5085190;28;20247;-77
2023/05/29 08:08:19;;;;;;;5.57;4.10;;;;;;;19.24;57.34;98237.16;5081923;28;20686;-77
2023/05/29 08:10:46;;;;;;;5.93;3.90;;;;;;;19.05;55.96;98239.53;5085816;28;20196;-78
2023/05/29 08:13:12;;;;;;;6.50;4.27;;;;;;;19.14;58.56;98234.44;5086449;28;20197;-78
2023/05/29 08:15:38;;;;;;;6.87;4.13;;;;;;;19.32;56.16;98242.81;5087753;28;20212;-78
2023/05/29 08:18:06;;;;;;;7.17;4.30;;;;;;;19.33;56.22;98243.63;5089177;28;20192;-77
2023/05/29 08:20:34;;;;;;;5.33;3.80;;;;;;;19.38;56.75;98244.44;5084015;28;20199;-78
2023/05/29 08:23:00;;;;;;;4.80;3.40;;;;;;;19.67;56.93;98242.78;5077810;28;20295;-77
2023/05/29 08:25:28;;;;;;;4.43;3.80;;;;;;;19.90;55.31;98243.28;5076198;28;20594;-77
2023/05/29 08:27:54;;;;;;;5.63;4.50;;;;;;;19.90;55.03;98245.97;5078080;28;20686;-77
2023/05/29 08:30:21;;;;;;;7.10;3.73;;;;;;;20.08;54.95;98238.13;5114780;28;20203;-77
2023/05/29 08:32:48;;;;;;;5.63;4.20;;;;;;;20.09;54.29;98242.47;5117838;28;20761;-77
2023/05/29 08:35:14;;;;;;;8.23;4.27;;;;;;;20.49;54.58;98246.88;5117840;28;20195;-77
2023/05/29 08:37:40;;;;;;;4.70;4.20;;;;;;;20.34;53.99;98238.84;5118237;28;20205;-77
2023/05/29 08:40:08;;;;;;;5.70;3.90;;;;;;;20.42;56.12;98235.56;5117856;28;20207;-77
2023/05/29 08:42:40;;;;;;;4.73;3.63;;;;;;;20.42;56.07;98243.66;5098796;28;20196;-77
2023/05/29 08:45:10;;;;;;;5.83;4.30;;;;;;;20.63;53.81;98239.78;5097167;28;20216;-77
2023/05/29 08:47:41;;;;;;;6.27;3.93;;;;;;;20.45;54.34;98243.13;5079803;28;20200;-78
2023/05/29 08:50:09;;;;;;;6.37;4.43;;;;;;;20.39;55.41;98241.53;5098071;28;20192;-78
2023/05/29 08:52:36;;;;;;;6.37;4.10;;;;;;;20.51;55.85;98247.41;5096865;28;20604;-77
2023/05/29 08:55:03;;;;;;;6.03;4.50;;;;;;;19.95;54.87;98245.97;5098424;28;20539;-78
2023/05/29 08:57:30;;;;;;;5.27;3.93;;;;;;;20.33;53.51;98243.44;5099374;28;20208;-78
2023/05/29 08:59:57;;;;;;;4.93;3.97;;;;;;;20.53;56.15;98242.53;5097704;28;20685;-77
2023/05/29 09:02:24;;;;;;;4.50;4.00;;;;;;;20.33;55.47;98238.03;5097023;28;20211;-77
2023/05/29 09:04:53;;;;;;;5.13;3.93;;;;;;;20.75;56.85;98234.84;5098062;28;20220;-78
2023/05/29 09:07:20;;;;;;;7.33;3.90;;;;;;;20.73;55.13;98248.66;5097208;28;20224;-77
2023/05/29 09:09:47;;;;;;;5.57;4.00;;;;;;;20.66;54.41;98250.84;5097609;28;20215;-78
2023/05/29 09:12:14;;;;;;;5.63;4.17;;;;;;;20.95;55.26;98245.56;5096954;28;20208;-77
2023/05/29 09:14:45;;;;;;;6.07;3.97;;;;;;;20.84;53.57;98244.00;5097214;28;20663;-78
2023/05/29 09:17:12;;;;;;;5.40;4.33;;;;;;;20.73;53.68;98242.41;5097306;28;20236;-78
2023/05/29 09:19:41;;;;;;;6.70;4.10;;;;;;;21.26;54.85;98242.34;5096379;28;20208;-77
2023/05/29 09:22:15;;;;;;;6.47;4.60;;;;;;;21.65;53.17;98244.97;5096198;28;20204;-77
2023/05/29 09:24:43;;;;;;;5.97;4.00;;;;;;;21.80;53.85;98247.59;5096738;28;20257;-77
2023/05/29 09:27:12;;;;;;;5.83;3.93;;;;;;;21.99;49.98;98243.88;5097535;28;20311;-77
2023/05/29 09:29:43;;;;;;;5.87;3.93;;;;;;;21.65;51.98;98247.69;5098168;28;20628;-78
2023/05/29 09:32:10;;;;;;;7.57;4.17;;;;;;;22.06;53.17;98243.53;5096854;28;20659;-77
2023/05/29 09:34:37;;;;;;;4.63;4.18;;;;;;;22.23;50.17;98243.84;5096904;28;20613;-78
2023/05/29 09:37:08;;;;;;;6.07;4.27;;;;;;;22.03;50.66;98241.38;5097679;28;20228;-78
2023/05/29 09:39:44;;;;;;;7.40;4.43;;;;;;;22.35;49.98;98245.09;5097323;28;20192;-78
2023/05/29 09:42:11;;;;;;;5.10;3.97;;;;;;;22.67;49.45;98247.13;5096691;28;20203;-77
2023/05/29 09:44:37;;;;;;;5.55;4.00;;;;;;;22.53;47.74;98241.63;5098714;28;20258;-78
2023/05/29 09:47:04;;;;;;;6.00;3.90;;;;;;;22.42;48.52;98247.41;5097176;28;20710;-77
2023/05/29 09:49:32;;;;;;;10.43;4.03;;;;;;;22.62;50.14;98247.19;5096599;28;20226;-77
2023/05/29 09:52:00;;;;;;;13.75;4.28;;;;;;;22.01;48.96;98243.56;5097491;28;20222;-78
2023/05/29 09:54:29;;;;;;;6.38;3.83;;;;;;;22.30;48.69;98245.13;5097584;28;20204;-77
2023/05/29 09:56:57;;;;;;;4.88;3.90;;;;;;;22.64;48.41;98253.13;5097145;28;20315;-78
2023/05/29 09:59:25;;;;;;;4.80;3.80;;;;;;;23.01;45.68;98236.88;5095388;28;20208;-77
2023/05/29 10:02:12;;;;;;;6.50;3.97;;;;;;;22.95;46.25;98229.91;5095989;28;20207;-77
2023/05/29 10:04:39;;;;;;;7.20;4.10;;;;;;;22.92;46.02;98222.38;5097256;28;20208;-78
2023/05/29 10:07:11;;;;;;;7.38;3.75;;;;;;;23.07;43.96;98222.16;5097032;28;20259;-78
2023/05/29 10:09:43;;;;;;;13.52;4.07;;;;;;;22.84;42.47;98221.13;5097370;28;20602;-78
2023/05/29 10:12:12;;;;;;;4.45;3.42;;;;;;;22.84;42.27;98209.47;5097232;28;20631;-78
2023/05/29 10:14:43;;;;;;;7.32;3.30;;;;;;;23.27;41.51;98211.00;5096680;28;20203;-78
2023/05/29 10:17:14;;;;;;;5.15;3.30;;;;;;;23.21;40.38;98218.44;5096432;28;20239;-78
2023/05/29 10:19:42;;;;;;;7.47;3.72;;;;;;;23.75;40.44;98223.19;5096530;28;20192;-77
2023/05/29 10:22:09;;;;;;;3.88;3.00;;;;;;;23.80;39.89;98214.94;5097360;28;20211;-78
2023/05/29 10:24:37;;;;;;;6.57;3.60;;;;;;;23.95;38.28;98220.09;5097048;28;20590;-78
2023/05/29 10:27:05;;;;;;;5.00;3.47;;;;;;;23.75;39.05;98220.47;5096511;28;20235;-78
2023/05/29 10:29:44;;;;;;;5.05;3.85;;;;;;;23.97;38.09;98210.56;5095614;28;20204;-77
2023/05/29 10:32:27;;;;;;;6.40;3.70;;;;;;;24.11;39.61;98214.06;5096383;28;20275;-77
2023/05/29 10:34:59;;;;;;;4.72;2.95;;;;;;;24.20;39.66;98214.19;5097411;28;20189;-78
2023/05/29 10:37:45;;;;;;;5.88;3.67;;;;;;;24.31;38.62;98219.13;5095591;28;20228;-77
2023/05/29 10:40:12;;;;;;;5.75;3.60;;;;;;;24.26;39.53;98219.22;5096302;28;20631;-78
2023/05/29 10:42:52;;;;;;;5.55;3.53;;;;;;;24.13;38.72;98211.06;5079059;28;20651;-78
2023/05/29 10:45:31;;;;;;;7.05;3.97;;;;;;;23.99;38.06;98215.69;5097647;28;20207;-77
2023/05/29 10:48:17;;;;;;;6.07;3.70;;;;;;;23.55;39.14;98215.38;5097006;28;20199;-78
2023/05/29 10:50:47;;;;;;;7.15;3.70;;;;;;;23.47;39.87;98207.94;5097427;28;20203;-78
2023/05/29 10:53:25;;;;;;;4.90;3.53;;;;;;;24.08;38.36;98214.69;5096587;28;20574;-77
2023/05/29 10:55:52;;;;;;;4.00;3.55;;;;;;;24.10;38.69;98217.91;5095969;28;20277;-77
2023/05/29 10:58:20;;;;;;;5.25;3.20;;;;;;;24.24;38.39;98207.84;5096673;28;20203;-78
2023/05/29 11:00:48;;;;;;;5.63;3.70;;;;;;;24.13;38.51;98213.78;5096670;28;20217;-78
2023/05/29 11:03:31;;;;;;;5.35;3.50;;;;;;;24.30;39.61;98205.84;5095365;28;20204;-77
2023/05/29 11:06:01;;;;;;;6.82;3.30;;;;;;;24.37;38.72;98204.31;5094368;28;20739;-77
2023/05/29 11:08:45;;;;;;;4.53;3.50;;;;;;;24.49;39.28;98199.16;5096875;28;20204;-77
2023/05/29 11:11:13;;;;;;;5.97;3.03;;;;;;;24.26;36.42;98199.38;5095768;28;20219;-78
2023/05/29 11:13:40;;;;;;;6.03;3.35;;;;;;;23.92;37.05;98210.66;5096776;28;20203;-78
2023/05/29 11:16:25;;;;;;;5.57;3.53;;;;;;;24.18;38.14;98208.25;5094422;28;20231;-77
2023/05/29 11:18:53;;;;;;;6.85;3.58;;;;;;;24.16;38.71;98213.97;5094586;28;20228;-77
2023/05/29 11:21:56;;;;;;;5.95;3.47;;;;;;;24.24;38.70;98209.78;5094270;28;20214;-77
2023/05/29 11:24:27;;;;;;;4.40;3.28;;;;;;;24.19;37.23;98205.22;5094382;28;20203;-77
2023/05/29 11:26:56;;;;;;;3.65;3.05;;;;;;;23.98;36.15;98201.31;5095252;28;20307;-78
2023/05/29 11:29:29;;;;;;;3.90;3.08;;;;;;;23.82;35.84;98204.56;5095176;28;20248;-77
2023/05/29 11:32:07;;;;;;;5.13;3.17;;;;;;;23.86;34.61;98208.31;5094369;28;20192;-77
2023/05/29 11:34:34;;;;;;;3.45;3.15;;;;;;;23.89;36.91;98208.53;5095198;28;20278;-77
2023/05/29 11:37:02;;;;;;;5.60;3.22;;;;;;;24.17;36.51;98214.78;5094120;28;20235;-77
2023/05/29 11:39:29;;;;;;;3.47;3.17;;;;;;;24.44;37.06;98209.34;5093815;28;20208;-77